UCT Elwood — V7HW9 — position and weather

sailwx.info

Track history (hours):
 
Tides and Currents Weather Stations Pressure Air Temp Water Temp Dewpoint Dewpoint Depression Visibility Wind Speed Wind Dir Waves Ship Positions

UCT Elwood

Last reported at 2017-Jan-19 11:33 UTC. Time now 2017-Feb-22 15:12 UTC.
Position S 37°44' W 054°55'.
Warning: this ship's position is 34 days out of date.

Type: Ship (hazmat cat B). MMSI: 538002324.

Date/timePositionNaut miles runAvg speedWind from/ knotsBaromVisibWave heightAir tempDewpointWater temp
2017-Jan-19 11:33S 37°44' W 054°55'1413.9
2017-Jan-19 10:33S 37°30' W 054°55'184 9.6
2017-Jan-18 15:19S 35°02' W 057°11'2612.5
2017-Jan-18 13:14S 34°45' W 057°35'811.6
2017-Jan-18 12:33S 34°44' W 057°45'4 3.2
2017-Jan-18 11:25S 34°44' W 057°49'0 0.0
2017-Jan-18 10:25S 34°44' W 057°49'0 0.0
2017-Jan-18 09:31S 34°44' W 057°49'0 0.0
2017-Jan-18 08:31S 34°44' W 057°49'0 0.0
2017-Jan-18 07:31S 34°44' W 057°49'0 0.0
2017-Jan-18 06:31S 34°44' W 057°49'0 0.1
2017-Jan-18 05:28S 34°44' W 057°49'1 0.8
2017-Jan-18 04:33S 34°43' W 057°50'8 8.5
2017-Jan-18 03:33S 34°40' W 057°60'1010.1
2017-Jan-18 02:33S 34°37' W 058°11'10 9.7
2017-Jan-18 01:33S 34°31' W 058°21'10 9.6
2017-Jan-18 00:33S 34°23' W 058°27'  
2017-Jan-15 03:26S 32°39' W 060°44'  
2017-Jan-12 04:32S 33°25' W 060°04'  
Track history (hours):
 
Tides and Currents Weather Stations Pressure Air Temp Water Temp Dewpoint Dewpoint Depression Visibility Wind Speed Wind Dir Waves Ship Positions

UCT Elwood

Last reported at 2017-Jan-19 11:33 UTC. Time now 2017-Feb-22 15:12 UTC.
Position S 37°44' W 054°55'.
Warning: this ship's position is 34 days out of date.

Type: Ship (hazmat cat B). MMSI: 538002324.

Date/timePositionNaut miles runAvg speedWind from/ knotsBaromVisibWave heightAir tempDewpointWater temp
2017-Jan-19 11:33S 37°44' W 054°55'1413.9
2017-Jan-19 10:33S 37°30' W 054°55'184 9.6
2017-Jan-18 15:19S 35°02' W 057°11'2612.5
2017-Jan-18 13:14S 34°45' W 057°35'811.6
2017-Jan-18 12:33S 34°44' W 057°45'4 3.2
2017-Jan-18 11:25S 34°44' W 057°49'0 0.0
2017-Jan-18 10:25S 34°44' W 057°49'0 0.0
2017-Jan-18 09:31S 34°44' W 057°49'0 0.0
2017-Jan-18 08:31S 34°44' W 057°49'0 0.0
2017-Jan-18 07:31S 34°44' W 057°49'0 0.0
2017-Jan-18 06:31S 34°44' W 057°49'0 0.1
2017-Jan-18 05:28S 34°44' W 057°49'1 0.8
2017-Jan-18 04:33S 34°43' W 057°50'8 8.5
2017-Jan-18 03:33S 34°40' W 057°60'1010.1
2017-Jan-18 02:33S 34°37' W 058°11'10 9.7
2017-Jan-18 01:33S 34°31' W 058°21'10 9.6
2017-Jan-18 00:33S 34°23' W 058°27'  
2017-Jan-15 03:26S 32°39' W 060°44'  
2017-Jan-12 04:32S 33°25' W 060°04'  

Dump ship's entire track history